sensor_id;sensor_type;location;lat;lon;timestamp;P1;durP1;ratioP1;P2;durP2;ratioP2
6955;SDS011;50345;51.136;16.886;2023-05-31T00:00:23;5.37;;;4.27;;
6955;SDS011;50345;51.136;16.886;2023-05-31T00:02:48;6.40;;;4.33;;
6955;SDS011;50345;51.136;16.886;2023-05-31T00:05:14;6.47;;;4.80;;
6955;SDS011;50345;51.136;16.886;2023-05-31T00:07:40;5.50;;;4.50;;
6955;SDS011;50345;51.136;16.886;2023-05-31T00:10:05;7.03;;;5.00;;
6955;SDS011;50345;51.136;16.886;2023-05-31T00:12:31;5.47;;;4.27;;
6955;SDS011;50345;51.136;16.886;2023-05-31T00:14:57;4.70;;;4.10;;
6955;SDS011;50345;51.136;16.886;2023-05-31T00:17:22;6.80;;;4.33;;
6955;SDS011;50345;51.136;16.886;2023-05-31T00:19:48;4.37;;;3.70;;
6955;SDS011;50345;51.136;16.886;2023-05-31T00:22:13;7.50;;;4.97;;
6955;SDS011;50345;51.136;16.886;2023-05-31T00:24:41;6.50;;;4.35;;
6955;SDS011;50345;51.136;16.886;2023-05-31T00:27:08;5.05;;;4.55;;
6955;SDS011;50345;51.136;16.886;2023-05-31T00:29:33;4.93;;;4.13;;
6955;SDS011;50345;51.136;16.886;2023-05-31T00:31:59;5.53;;;4.30;;
6955;SDS011;50345;51.136;16.886;2023-05-31T00:34:24;8.20;;;4.17;;
6955;SDS011;50345;51.136;16.886;2023-05-31T00:36:50;5.20;;;4.70;;
6955;SDS011;50345;51.136;16.886;2023-05-31T00:39:15;7.10;;;5.30;;
6955;SDS011;50345;51.136;16.886;2023-05-31T00:41:41;6.17;;;4.77;;
6955;SDS011;50345;51.136;16.886;2023-05-31T00:44:07;3.67;;;3.17;;
6955;SDS011;50345;51.136;16.886;2023-05-31T00:46:33;5.70;;;4.70;;
6955;SDS011;50345;51.136;16.886;2023-05-31T00:49:01;5.32;;;4.35;;
6955;SDS011;50345;51.136;16.886;2023-05-31T00:51:28;7.40;;;4.90;;
6955;SDS011;50345;51.136;16.886;2023-05-31T00:53:55;6.32;;;5.30;;
6955;SDS011;50345;51.136;16.886;2023-05-31T00:56:22;5.97;;;4.10;;
6955;SDS011;50345;51.136;16.886;2023-05-31T00:58:49;7.17;;;5.00;;
6955;SDS011;50345;51.136;16.886;2023-05-31T01:01:17;4.40;;;4.00;;
6955;SDS011;50345;51.136;16.886;2023-05-31T01:03:44;6.93;;;4.53;;
6955;SDS011;50345;51.136;16.886;2023-05-31T01:06:11;7.38;;;5.07;;
6955;SDS011;50345;51.136;16.886;2023-05-31T01:08:37;5.63;;;3.90;;
6955;SDS011;50345;51.136;16.886;2023-05-31T01:11:09;4.45;;;4.05;;
6955;SDS011;50345;51.136;16.886;2023-05-31T01:14:04;5.60;;;3.75;;
6955;SDS011;50345;51.136;16.886;2023-05-31T01:16:44;5.22;;;4.03;;
6955;SDS011;50345;51.136;16.886;2023-05-31T01:19:25;7.38;;;3.95;;
6955;SDS011;50345;51.136;16.886;2023-05-31T01:24:44;5.45;;;3.90;;
6955;SDS011;50345;51.136;16.886;2023-05-31T01:27:29;5.60;;;4.55;;
6955;SDS011;50345;51.136;16.886;2023-05-31T01:29:56;4.45;;;3.50;;
6955;SDS011;50345;51.136;16.886;2023-05-31T01:32:25;10.35;;;4.70;;
6955;SDS011;50345;51.136;16.886;2023-05-31T01:34:52;7.28;;;5.28;;
6955;SDS011;50345;51.136;16.886;2023-05-31T01:37:18;6.80;;;4.70;;
6955;SDS011;50345;51.136;16.886;2023-05-31T01:39:43;7.10;;;4.50;;
6955;SDS011;50345;51.136;16.886;2023-05-31T01:42:11;5.60;;;4.38;;
6955;SDS011;50345;51.136;16.886;2023-05-31T01:44:37;6.57;;;4.18;;
6955;SDS011;50345;51.136;16.886;2023-05-31T01:47:05;5.90;;;3.80;;
6955;SDS011;50345;51.136;16.886;2023-05-31T01:49:32;6.05;;;4.30;;
6955;SDS011;50345;51.136;16.886;2023-05-31T01:52:00;8.23;;;3.80;;
6955;SDS011;50345;51.136;16.886;2023-05-31T01:54:27;5.20;;;4.30;;
6955;SDS011;50345;51.136;16.886;2023-05-31T01:56:52;5.93;;;3.83;;
6955;SDS011;50345;51.136;16.886;2023-05-31T01:59:18;4.93;;;3.73;;
6955;SDS011;50345;51.136;16.886;2023-05-31T02:01:45;5.70;;;3.83;;
6955;SDS011;50345;51.136;16.886;2023-05-31T02:04:12;6.03;;;4.10;;
6955;SDS011;50345;51.136;16.886;2023-05-31T02:06:41;7.07;;;4.10;;
6955;SDS011;50345;51.136;16.886;2023-05-31T02:09:07;5.60;;;4.17;;
6955;SDS011;50345;51.136;16.886;2023-05-31T02:11:33;7.13;;;5.30;;
6955;SDS011;50345;51.136;16.886;2023-05-31T02:13:58;6.80;;;4.50;;
6955;SDS011;50345;51.136;16.886;2023-05-31T02:16:24;4.90;;;3.77;;
6955;SDS011;50345;51.136;16.886;2023-05-31T02:18:49;5.60;;;3.43;;
6955;SDS011;50345;51.136;16.886;2023-05-31T02:21:16;7.18;;;3.78;;
6955;SDS011;50345;51.136;16.886;2023-05-31T02:23:42;12.27;;;4.80;;
6955;SDS011;50345;51.136;16.886;2023-05-31T02:26:07;4.20;;;3.77;;
6955;SDS011;50345;51.136;16.886;2023-05-31T02:28:33;8.23;;;3.73;;
6955;SDS011;50345;51.136;16.886;2023-05-31T02:30:59;5.10;;;3.60;;
6955;SDS011;50345;51.136;16.886;2023-05-31T02:33:25;8.05;;;3.83;;
6955;SDS011;50345;51.136;16.886;2023-05-31T02:35:52;6.35;;;4.30;;
6955;SDS011;50345;51.136;16.886;2023-05-31T02:38:18;4.97;;;4.50;;
6955;SDS011;50345;51.136;16.886;2023-05-31T02:40:45;13.38;;;4.93;;
6955;SDS011;50345;51.136;16.886;2023-05-31T02:43:11;4.30;;;3.50;;
6955;SDS011;50345;51.136;16.886;2023-05-31T02:45:36;6.50;;;4.00;;
6955;SDS011;50345;51.136;16.886;2023-05-31T02:48:02;4.70;;;4.00;;
6955;SDS011;50345;51.136;16.886;2023-05-31T02:50:30;5.15;;;4.10;;
6955;SDS011;50345;51.136;16.886;2023-05-31T02:52:56;6.72;;;4.30;;
6955;SDS011;50345;51.136;16.886;2023-05-31T02:55:21;6.20;;;4.80;;
6955;SDS011;50345;51.136;16.886;2023-05-31T02:57:47;9.37;;;5.40;;
6955;SDS011;50345;51.136;16.886;2023-05-31T03:00:13;5.30;;;4.77;;
6955;SDS011;50345;51.136;16.886;2023-05-31T03:02:39;6.67;;;4.47;;
6955;SDS011;50345;51.136;16.886;2023-05-31T03:05:05;5.85;;;4.32;;
6955;SDS011;50345;51.136;16.886;2023-05-31T03:07:34;5.60;;;5.05;;
6955;SDS011;50345;51.136;16.886;2023-05-31T03:10:03;6.07;;;4.30;;
6955;SDS011;50345;51.136;16.886;2023-05-31T03:12:29;10.75;;;6.07;;
6955;SDS011;50345;51.136;16.886;2023-05-31T03:14:55;6.65;;;4.88;;
6955;SDS011;50345;51.136;16.886;2023-05-31T03:17:21;8.83;;;5.80;;
6955;SDS011;50345;51.136;16.886;2023-05-31T03:19:46;5.80;;;4.40;;
6955;SDS011;50345;51.136;16.886;2023-05-31T03:22:12;11.27;;;7.53;;
6955;SDS011;50345;51.136;16.886;2023-05-31T03:24:37;8.00;;;4.77;;
6955;SDS011;50345;51.136;16.886;2023-05-31T03:27:03;6.57;;;4.57;;
6955;SDS011;50345;51.136;16.886;2023-05-31T03:29:29;5.57;;;4.93;;
6955;SDS011;50345;51.136;16.886;2023-05-31T03:31:54;6.77;;;4.80;;
6955;SDS011;50345;51.136;16.886;2023-05-31T03:34:20;6.30;;;5.70;;
6955;SDS011;50345;51.136;16.886;2023-05-31T03:36:47;11.68;;;7.10;;
6955;SDS011;50345;51.136;16.886;2023-05-31T03:39:13;7.80;;;7.00;;
6955;SDS011;50345;51.136;16.886;2023-05-31T03:41:38;8.40;;;5.57;;
6955;SDS011;50345;51.136;16.886;2023-05-31T03:44:04;8.33;;;5.97;;
6955;SDS011;50345;51.136;16.886;2023-05-31T03:46:29;7.40;;;6.70;;
6955;SDS011;50345;51.136;16.886;2023-05-31T03:48:55;8.03;;;7.23;;
6955;SDS011;50345;51.136;16.886;2023-05-31T03:51:20;8.53;;;7.63;;
6955;SDS011;50345;51.136;16.886;2023-05-31T03:53:46;7.87;;;5.70;;
6955;SDS011;50345;51.136;16.886;2023-05-31T03:56:12;10.80;;;6.57;;
6955;SDS011;50345;51.136;16.886;2023-05-31T03:58:37;6.57;;;5.83;;
6955;SDS011;50345;51.136;16.886;2023-05-31T04:01:03;8.00;;;5.60;;
6955;SDS011;50345;51.136;16.886;2023-05-31T04:03:29;7.57;;;5.30;;
6955;SDS011;50345;51.136;16.886;2023-05-31T04:05:54;12.87;;;5.33;;
6955;SDS011;50345;51.136;16.886;2023-05-31T04:08:20;9.70;;;5.97;;
6955;SDS011;50345;51.136;16.886;2023-05-31T04:10:45;8.23;;;5.00;;
6955;SDS011;50345;51.136;16.886;2023-05-31T04:13:11;8.70;;;5.70;;
6955;SDS011;50345;51.136;16.886;2023-05-31T04:15:37;7.53;;;6.53;;
6955;SDS011;50345;51.136;16.886;2023-05-31T04:18:03;8.10;;;4.90;;
6955;SDS011;50345;51.136;16.886;2023-05-31T04:20:29;7.67;;;6.00;;
6955;SDS011;50345;51.136;16.886;2023-05-31T04:22:55;9.02;;;5.80;;
6955;SDS011;50345;51.136;16.886;2023-05-31T04:25:20;8.10;;;5.57;;
6955;SDS011;50345;51.136;16.886;2023-05-31T04:27:46;8.27;;;5.57;;
6955;SDS011;50345;51.136;16.886;2023-05-31T04:30:12;9.45;;;6.10;;
6955;SDS011;50345;51.136;16.886;2023-05-31T04:32:38;8.90;;;6.07;;
6955;SDS011;50345;51.136;16.886;2023-05-31T04:35:04;8.68;;;5.63;;
6955;SDS011;50345;51.136;16.886;2023-05-31T04:37:31;11.35;;;5.70;;
6955;SDS011;50345;51.136;16.886;2023-05-31T04:39:57;10.52;;;6.32;;
6955;SDS011;50345;51.136;16.886;2023-05-31T04:42:24;9.07;;;6.00;;
6955;SDS011;50345;51.136;16.886;2023-05-31T04:44:53;12.25;;;10.95;;
6955;SDS011;50345;51.136;16.886;2023-05-31T04:47:25;13.82;;;8.60;;
6955;SDS011;50345;51.136;16.886;2023-05-31T04:49:53;8.38;;;5.85;;
6955;SDS011;50345;51.136;16.886;2023-05-31T04:52:22;7.75;;;5.25;;
6955;SDS011;50345;51.136;16.886;2023-05-31T04:54:57;9.48;;;5.68;;
6955;SDS011;50345;51.136;16.886;2023-05-31T04:57:24;9.85;;;5.60;;
6955;SDS011;50345;51.136;16.886;2023-05-31T04:59:51;10.10;;;6.13;;
6955;SDS011;50345;51.136;16.886;2023-05-31T05:02:17;13.03;;;7.00;;
6955;SDS011;50345;51.136;16.886;2023-05-31T05:04:44;8.55;;;6.35;;
6955;SDS011;50345;51.136;16.886;2023-05-31T05:07:10;9.80;;;6.88;;
6955;SDS011;50345;51.136;16.886;2023-05-31T05:09:36;8.80;;;7.10;;
6955;SDS011;50345;51.136;16.886;2023-05-31T05:12:01;9.00;;;7.60;;
6955;SDS011;50345;51.136;16.886;2023-05-31T05:14:28;10.93;;;7.80;;
6955;SDS011;50345;51.136;16.886;2023-05-31T05:16:54;12.02;;;7.25;;
6955;SDS011;50345;51.136;16.886;2023-05-31T05:19:20;9.97;;;7.60;;
6955;SDS011;50345;51.136;16.886;2023-05-31T05:21:45;15.67;;;7.70;;
6955;SDS011;50345;51.136;16.886;2023-05-31T05:24:11;14.10;;;8.10;;
6955;SDS011;50345;51.136;16.886;2023-05-31T05:26:37;11.57;;;7.30;;
6955;SDS011;50345;51.136;16.886;2023-05-31T05:29:02;15.03;;;8.03;;
6955;SDS011;50345;51.136;16.886;2023-05-31T05:31:28;13.40;;;8.00;;
6955;SDS011;50345;51.136;16.886;2023-05-31T05:33:53;10.60;;;7.77;;
6955;SDS011;50345;51.136;16.886;2023-05-31T05:36:19;8.60;;;6.93;;
6955;SDS011;50345;51.136;16.886;2023-05-31T05:38:45;17.80;;;7.23;;
6955;SDS011;50345;51.136;16.886;2023-05-31T05:41:10;16.60;;;7.73;;
6955;SDS011;50345;51.136;16.886;2023-05-31T05:43:40;11.98;;;7.22;;
6955;SDS011;50345;51.136;16.886;2023-05-31T05:46:05;15.57;;;7.60;;
6955;SDS011;50345;51.136;16.886;2023-05-31T05:48:31;21.37;;;8.73;;
6955;SDS011;50345;51.136;16.886;2023-05-31T05:50:57;15.23;;;8.27;;
6955;SDS011;50345;51.136;16.886;2023-05-31T05:53:22;14.90;;;7.00;;
6955;SDS011;50345;51.136;16.886;2023-05-31T05:55:48;13.33;;;6.63;;
6955;SDS011;50345;51.136;16.886;2023-05-31T05:58:15;17.00;;;6.95;;
6955;SDS011;50345;51.136;16.886;2023-05-31T06:00:42;8.90;;;6.80;;
6955;SDS011;50345;51.136;16.886;2023-05-31T06:03:09;12.00;;;6.82;;
6955;SDS011;50345;51.136;16.886;2023-05-31T06:05:35;12.63;;;7.20;;
6955;SDS011;50345;51.136;16.886;2023-05-31T06:08:01;15.50;;;7.57;;
6955;SDS011;50345;51.136;16.886;2023-05-31T06:10:27;7.75;;;6.63;;
6955;SDS011;50345;51.136;16.886;2023-05-31T06:12:53;15.80;;;8.03;;
6955;SDS011;50345;51.136;16.886;2023-05-31T06:15:19;17.95;;;6.70;;
6955;SDS011;50345;51.136;16.886;2023-05-31T06:17:45;10.03;;;6.67;;
6955;SDS011;50345;51.136;16.886;2023-05-31T06:20:13;8.98;;;6.15;;
6955;SDS011;50345;51.136;16.886;2023-05-31T06:22:38;11.60;;;7.03;;
6955;SDS011;50345;51.136;16.886;2023-05-31T06:25:04;10.87;;;6.33;;
6955;SDS011;50345;51.136;16.886;2023-05-31T06:27:30;12.77;;;6.87;;
6955;SDS011;50345;51.136;16.886;2023-05-31T06:29:55;13.00;;;6.80;;
6955;SDS011;50345;51.136;16.886;2023-05-31T06:32:26;10.10;;;7.18;;
6955;SDS011;50345;51.136;16.886;2023-05-31T06:34:52;9.10;;;5.57;;
6955;SDS011;50345;51.136;16.886;2023-05-31T06:37:18;9.03;;;5.63;;
6955;SDS011;50345;51.136;16.886;2023-05-31T06:39:45;13.90;;;6.63;;
6955;SDS011;50345;51.136;16.886;2023-05-31T06:42:10;5.20;;;4.07;;
6955;SDS011;50345;51.136;16.886;2023-05-31T06:44:36;7.77;;;5.30;;
6955;SDS011;50345;51.136;16.886;2023-05-31T06:47:02;8.97;;;5.00;;
6955;SDS011;50345;51.136;16.886;2023-05-31T06:49:28;10.50;;;4.97;;
6955;SDS011;50345;51.136;16.886;2023-05-31T06:51:54;10.10;;;6.27;;
6955;SDS011;50345;51.136;16.886;2023-05-31T06:54:20;12.40;;;5.97;;
6955;SDS011;50345;51.136;16.886;2023-05-31T06:56:45;5.40;;;4.47;;
6955;SDS011;50345;51.136;16.886;2023-05-31T06:59:11;9.77;;;7.20;;
6955;SDS011;50345;51.136;16.886;2023-05-31T07:01:36;5.40;;;4.90;;
6955;SDS011;50345;51.136;16.886;2023-05-31T07:04:02;5.80;;;4.37;;
6955;SDS011;50345;51.136;16.886;2023-05-31T07:06:28;6.33;;;4.43;;
6955;SDS011;50345;51.136;16.886;2023-05-31T07:08:53;10.83;;;5.43;;
6955;SDS011;50345;51.136;16.886;2023-05-31T07:11:19;13.47;;;6.10;;
6955;SDS011;50345;51.136;16.886;2023-05-31T07:13:46;8.77;;;4.72;;
6955;SDS011;50345;51.136;16.886;2023-05-31T07:16:13;6.45;;;4.53;;
6955;SDS011;50345;51.136;16.886;2023-05-31T07:18:38;6.37;;;4.50;;
6955;SDS011;50345;51.136;16.886;2023-05-31T07:21:04;8.87;;;4.07;;
6955;SDS011;50345;51.136;16.886;2023-05-31T07:23:29;7.33;;;5.10;;
6955;SDS011;50345;51.136;16.886;2023-05-31T07:25:55;5.97;;;5.33;;
6955;SDS011;50345;51.136;16.886;2023-05-31T07:28:25;8.17;;;4.83;;
6955;SDS011;50345;51.136;16.886;2023-05-31T07:30:51;7.70;;;4.93;;
6955;SDS011;50345;51.136;16.886;2023-05-31T07:33:17;4.93;;;4.37;;
6955;SDS011;50345;51.136;16.886;2023-05-31T07:35:43;4.97;;;4.43;;
6955;SDS011;50345;51.136;16.886;2023-05-31T07:38:08;6.03;;;4.37;;
6955;SDS011;50345;51.136;16.886;2023-05-31T07:40:34;11.73;;;5.47;;
6955;SDS011;50345;51.136;16.886;2023-05-31T07:43:00;6.10;;;5.00;;
6955;SDS011;50345;51.136;16.886;2023-05-31T07:45:25;8.20;;;4.80;;
6955;SDS011;50345;51.136;16.886;2023-05-31T07:47:51;5.53;;;4.20;;
6955;SDS011;50345;51.136;16.886;2023-05-31T07:50:17;5.87;;;4.63;;
6955;SDS011;50345;51.136;16.886;2023-05-31T07:52:43;7.60;;;4.90;;
6955;SDS011;50345;51.136;16.886;2023-05-31T07:55:11;7.20;;;4.43;;
6955;SDS011;50345;51.136;16.886;2023-05-31T07:57:37;6.90;;;4.80;;
6955;SDS011;50345;51.136;16.886;2023-05-31T08:00:03;5.47;;;3.73;;
6955;SDS011;50345;51.136;16.886;2023-05-31T08:02:30;6.20;;;4.90;;
6955;SDS011;50345;51.136;16.886;2023-05-31T08:04:56;6.23;;;4.20;;
6955;SDS011;50345;51.136;16.886;2023-05-31T08:07:26;6.77;;;4.30;;
6955;SDS011;50345;51.136;16.886;2023-05-31T08:09:52;5.57;;;3.23;;
6955;SDS011;50345;51.136;16.886;2023-05-31T08:12:18;5.33;;;3.40;;
6955;SDS011;50345;51.136;16.886;2023-05-31T08:14:44;9.93;;;4.00;;
6955;SDS011;50345;51.136;16.886;2023-05-31T08:17:09;4.40;;;2.83;;
6955;SDS011;50345;51.136;16.886;2023-05-31T08:19:35;3.80;;;3.20;;
6955;SDS011;50345;51.136;16.886;2023-05-31T08:22:01;5.20;;;2.97;;
6955;SDS011;50345;51.136;16.886;2023-05-31T08:24:27;8.03;;;3.77;;
6955;SDS011;50345;51.136;16.886;2023-05-31T08:26:53;9.23;;;3.70;;
6955;SDS011;50345;51.136;16.886;2023-05-31T08:29:20;4.10;;;3.00;;
6955;SDS011;50345;51.136;16.886;2023-05-31T08:31:46;7.53;;;3.90;;
6955;SDS011;50345;51.136;16.886;2023-05-31T08:34:12;3.00;;;2.53;;
6955;SDS011;50345;51.136;16.886;2023-05-31T08:36:38;7.33;;;3.43;;
6955;SDS011;50345;51.136;16.886;2023-05-31T08:39:05;3.77;;;2.73;;
6955;SDS011;50345;51.136;16.886;2023-05-31T08:41:38;3.80;;;2.50;;
6955;SDS011;50345;51.136;16.886;2023-05-31T08:44:15;8.27;;;2.97;;
6955;SDS011;50345;51.136;16.886;2023-05-31T08:46:44;6.43;;;3.30;;
6955;SDS011;50345;51.136;16.886;2023-05-31T08:49:12;5.23;;;3.33;;
6955;SDS011;50345;51.136;16.886;2023-05-31T08:51:42;3.70;;;2.47;;
6955;SDS011;50345;51.136;16.886;2023-05-31T08:54:10;4.80;;;2.40;;
6955;SDS011;50345;51.136;16.886;2023-05-31T08:56:37;3.07;;;2.77;;
6955;SDS011;50345;51.136;16.886;2023-05-31T08:59:03;4.00;;;2.30;;
6955;SDS011;50345;51.136;16.886;2023-05-31T09:01:33;8.60;;;2.90;;
6955;SDS011;50345;51.136;16.886;2023-05-31T09:04:01;3.63;;;2.67;;
6955;SDS011;50345;51.136;16.886;2023-05-31T09:06:30;3.20;;;2.03;;
6955;SDS011;50345;51.136;16.886;2023-05-31T09:08:56;2.43;;;2.20;;
6955;SDS011;50345;51.136;16.886;2023-05-31T09:11:22;1.90;;;1.70;;
6955;SDS011;50345;51.136;16.886;2023-05-31T09:13:48;6.70;;;2.30;;
6955;SDS011;50345;51.136;16.886;2023-05-31T09:16:13;5.57;;;2.40;;
6955;SDS011;50345;51.136;16.886;2023-05-31T09:18:39;5.73;;;3.20;;
6955;SDS011;50345;51.136;16.886;2023-05-31T09:21:08;3.10;;;2.70;;
6955;SDS011;50345;51.136;16.886;2023-05-31T09:23:35;4.43;;;2.30;;
6955;SDS011;50345;51.136;16.886;2023-05-31T09:26:01;8.20;;;3.03;;
6955;SDS011;50345;51.136;16.886;2023-05-31T09:28:30;5.10;;;2.90;;
6955;SDS011;50345;51.136;16.886;2023-05-31T09:33:38;4.50;;;2.60;;
6955;SDS011;50345;51.136;16.886;2023-05-31T09:36:07;2.23;;;2.03;;
6955;SDS011;50345;51.136;16.886;2023-05-31T09:38:34;6.33;;;2.27;;
6955;SDS011;50345;51.136;16.886;2023-05-31T09:41:10;5.10;;;2.70;;
6955;SDS011;50345;51.136;16.886;2023-05-31T09:43:40;5.00;;;3.10;;
6955;SDS011;50345;51.136;16.886;2023-05-31T09:46:10;4.30;;;2.50;;
6955;SDS011;50345;51.136;16.886;2023-05-31T09:48:40;7.53;;;2.40;;
6955;SDS011;50345;51.136;16.886;2023-05-31T09:51:06;3.43;;;2.53;;
6955;SDS011;50345;51.136;16.886;2023-05-31T09:53:39;3.10;;;2.70;;
6955;SDS011;50345;51.136;16.886;2023-05-31T09:56:10;5.03;;;2.90;;
6955;SDS011;50345;51.136;16.886;2023-05-31T09:58:41;3.27;;;2.97;;
6955;SDS011;50345;51.136;16.886;2023-05-31T10:01:07;5.50;;;2.97;;
6955;SDS011;50345;51.136;16.886;2023-05-31T10:03:34;5.50;;;2.80;;
6955;SDS011;50345;51.136;16.886;2023-05-31T10:06:01;3.50;;;2.63;;
6955;SDS011;50345;51.136;16.886;2023-05-31T10:08:28;3.43;;;2.70;;
6955;SDS011;50345;51.136;16.886;2023-05-31T10:10:55;4.03;;;2.60;;
6955;SDS011;50345;51.136;16.886;2023-05-31T10:13:24;7.30;;;2.67;;
6955;SDS011;50345;51.136;16.886;2023-05-31T10:15:53;6.43;;;2.70;;
6955;SDS011;50345;51.136;16.886;2023-05-31T10:18:21;5.30;;;2.67;;
6955;SDS011;50345;51.136;16.886;2023-05-31T10:23:22;3.50;;;3.20;;
6955;SDS011;50345;51.136;16.886;2023-05-31T10:25:50;5.33;;;3.27;;
6955;SDS011;50345;51.136;16.886;2023-05-31T10:28:39;12.73;;;2.87;;
6955;SDS011;50345;51.136;16.886;2023-05-31T10:31:28;2.77;;;2.47;;
6955;SDS011;50345;51.136;16.886;2023-05-31T10:34:14;5.00;;;3.00;;
6955;SDS011;50345;51.136;16.886;2023-05-31T10:36:51;6.00;;;2.83;;
6955;SDS011;50345;51.136;16.886;2023-05-31T10:41:49;4.23;;;2.40;;
6955;SDS011;50345;51.136;16.886;2023-05-31T10:44:23;4.13;;;3.13;;
6955;SDS011;50345;51.136;16.886;2023-05-31T10:46:57;4.83;;;2.70;;
6955;SDS011;50345;51.136;16.886;2023-05-31T10:49:26;3.07;;;2.60;;
6955;SDS011;50345;51.136;16.886;2023-05-31T10:52:03;6.30;;;2.83;;
6955;SDS011;50345;51.136;16.886;2023-05-31T10:54:29;4.10;;;2.63;;
6955;SDS011;50345;51.136;16.886;2023-05-31T10:56:57;4.63;;;2.80;;
6955;SDS011;50345;51.136;16.886;2023-05-31T10:59:27;4.50;;;2.93;;
6955;SDS011;50345;51.136;16.886;2023-05-31T11:01:53;3.67;;;2.37;;
6955;SDS011;50345;51.136;16.886;2023-05-31T11:04:20;16.23;;;4.73;;
6955;SDS011;50345;51.136;16.886;2023-05-31T11:06:47;11.87;;;4.50;;
6955;SDS011;50345;51.136;16.886;2023-05-31T11:09:16;3.37;;;2.23;;
6955;SDS011;50345;51.136;16.886;2023-05-31T11:19:27;23.00;;;4.60;;
6955;SDS011;50345;51.136;16.886;2023-05-31T11:21:57;26.83;;;6.53;;
6955;SDS011;50345;51.136;16.886;2023-05-31T11:24:38;3.93;;;3.20;;
6955;SDS011;50345;51.136;16.886;2023-05-31T11:27:05;5.07;;;2.70;;
6955;SDS011;50345;51.136;16.886;2023-05-31T11:32:13;6.73;;;2.23;;
6955;SDS011;50345;51.136;16.886;2023-05-31T11:34:52;2.30;;;1.80;;
6955;SDS011;50345;51.136;16.886;2023-05-31T11:37:19;2.70;;;2.03;;
6955;SDS011;50345;51.136;16.886;2023-05-31T11:39:48;3.77;;;2.67;;
6955;SDS011;50345;51.136;16.886;2023-05-31T11:42:15;3.40;;;2.80;;
6955;SDS011;50345;51.136;16.886;2023-05-31T11:44:42;3.23;;;2.10;;
6955;SDS011;50345;51.136;16.886;2023-05-31T11:47:09;2.90;;;2.70;;
6955;SDS011;50345;51.136;16.886;2023-05-31T11:49:36;4.20;;;2.70;;
6955;SDS011;50345;51.136;16.886;2023-05-31T11:52:03;2.43;;;2.23;;
6955;SDS011;50345;51.136;16.886;2023-05-31T11:54:29;3.13;;;2.93;;
6955;SDS011;50345;51.136;16.886;2023-05-31T11:57:01;4.43;;;2.30;;
6955;SDS011;50345;51.136;16.886;2023-05-31T11:59:35;3.73;;;2.37;;
6955;SDS011;50345;51.136;16.886;2023-05-31T12:02:03;3.17;;;2.87;;
6955;SDS011;50345;51.136;16.886;2023-05-31T12:04:36;2.83;;;2.63;;
6955;SDS011;50345;51.136;16.886;2023-05-31T12:07:03;2.63;;;2.43;;
6955;SDS011;50345;51.136;16.886;2023-05-31T12:09:30;2.83;;;2.63;;
6955;SDS011;50345;51.136;16.886;2023-05-31T12:11:57;4.47;;;2.77;;
6955;SDS011;50345;51.136;16.886;2023-05-31T12:14:23;2.53;;;2.30;;
6955;SDS011;50345;51.136;16.886;2023-05-31T12:16:53;3.90;;;2.10;;
6955;SDS011;50345;51.136;16.886;2023-05-31T12:19:19;2.73;;;2.53;;
6955;SDS011;50345;51.136;16.886;2023-05-31T12:21:45;2.90;;;2.50;;
6955;SDS011;50345;51.136;16.886;2023-05-31T12:24:12;3.00;;;2.80;;
6955;SDS011;50345;51.136;16.886;2023-05-31T12:26:39;2.83;;;2.50;;
6955;SDS011;50345;51.136;16.886;2023-05-31T12:29:07;2.50;;;2.40;;
6955;SDS011;50345;51.136;16.886;2023-05-31T12:31:36;4.00;;;2.20;;
6955;SDS011;50345;51.136;16.886;2023-05-31T12:36:57;2.37;;;2.27;;
6955;SDS011;50345;51.136;16.886;2023-05-31T12:39:23;3.30;;;2.07;;
6955;SDS011;50345;51.136;16.886;2023-05-31T12:41:50;3.33;;;2.70;;
6955;SDS011;50345;51.136;16.886;2023-05-31T12:44:17;3.80;;;2.30;;
6955;SDS011;50345;51.136;16.886;2023-05-31T12:46:45;5.00;;;2.17;;
6955;SDS011;50345;51.136;16.886;2023-05-31T12:49:12;2.90;;;2.70;;
6955;SDS011;50345;51.136;16.886;2023-05-31T12:51:38;2.90;;;2.00;;
6955;SDS011;50345;51.136;16.886;2023-05-31T12:54:09;2.63;;;2.43;;
6955;SDS011;50345;51.136;16.886;2023-05-31T12:56:35;2.50;;;2.30;;
6955;SDS011;50345;51.136;16.886;2023-05-31T12:59:01;3.27;;;2.47;;
6955;SDS011;50345;51.136;16.886;2023-05-31T13:01:27;5.40;;;2.53;;
6955;SDS011;50345;51.136;16.886;2023-05-31T13:03:54;2.40;;;2.30;;
6955;SDS011;50345;51.136;16.886;2023-05-31T13:06:20;2.53;;;1.97;;
6955;SDS011;50345;51.136;16.886;2023-05-31T13:08:46;3.37;;;2.37;;
6955;SDS011;50345;51.136;16.886;2023-05-31T13:11:12;3.47;;;2.47;;
6955;SDS011;50345;51.136;16.886;2023-05-31T13:13:38;4.70;;;2.20;;
6955;SDS011;50345;51.136;16.886;2023-05-31T13:16:04;3.20;;;2.43;;
6955;SDS011;50345;51.136;16.886;2023-05-31T13:18:30;2.87;;;2.53;;
6955;SDS011;50345;51.136;16.886;2023-05-31T13:20:56;3.50;;;2.70;;
6955;SDS011;50345;51.136;16.886;2023-05-31T13:23:23;2.93;;;2.63;;
6955;SDS011;50345;51.136;16.886;2023-05-31T13:25:49;2.87;;;2.20;;
6955;SDS011;50345;51.136;16.886;2023-05-31T13:28:16;2.20;;;2.00;;
6955;SDS011;50345;51.136;16.886;2023-05-31T13:30:42;2.57;;;2.37;;
6955;SDS011;50345;51.136;16.886;2023-05-31T13:33:08;8.60;;;3.00;;
6955;SDS011;50345;51.136;16.886;2023-05-31T13:35:34;2.20;;;1.93;;
6955;SDS011;50345;51.136;16.886;2023-05-31T13:38:01;2.13;;;2.00;;
6955;SDS011;50345;51.136;16.886;2023-05-31T13:40:27;2.30;;;2.10;;
6955;SDS011;50345;51.136;16.886;2023-05-31T13:42:53;2.43;;;2.33;;
6955;SDS011;50345;51.136;16.886;2023-05-31T13:45:20;2.37;;;2.17;;
6955;SDS011;50345;51.136;16.886;2023-05-31T13:47:46;2.23;;;2.13;;
6955;SDS011;50345;51.136;16.886;2023-05-31T13:50:12;2.90;;;1.90;;
6955;SDS011;50345;51.136;16.886;2023-05-31T13:52:38;1.93;;;1.53;;
6955;SDS011;50345;51.136;16.886;2023-05-31T13:55:05;3.47;;;2.40;;
6955;SDS011;50345;51.136;16.886;2023-05-31T13:57:31;2.43;;;2.23;;
6955;SDS011;50345;51.136;16.886;2023-05-31T13:59:57;2.47;;;2.20;;
6955;SDS011;50345;51.136;16.886;2023-05-31T14:02:23;2.17;;;1.90;;
6955;SDS011;50345;51.136;16.886;2023-05-31T14:04:49;4.73;;;2.13;;
6955;SDS011;50345;51.136;16.886;2023-05-31T14:07:15;2.50;;;2.30;;
6955;SDS011;50345;51.136;16.886;2023-05-31T14:09:41;1.87;;;1.77;;
6955;SDS011;50345;51.136;16.886;2023-05-31T14:12:08;2.67;;;2.47;;
6955;SDS011;50345;51.136;16.886;2023-05-31T14:14:34;1.70;;;1.60;;
6955;SDS011;50345;51.136;16.886;2023-05-31T14:17:00;2.20;;;2.00;;
6955;SDS011;50345;51.136;16.886;2023-05-31T14:19:26;2.83;;;2.00;;
6955;SDS011;50345;51.136;16.886;2023-05-31T14:21:52;7.40;;;2.60;;
6955;SDS011;50345;51.136;16.886;2023-05-31T14:24:18;2.20;;;2.00;;
6955;SDS011;50345;51.136;16.886;2023-05-31T14:26:44;3.20;;;2.50;;
6955;SDS011;50345;51.136;16.886;2023-05-31T14:29:10;2.40;;;2.13;;
6955;SDS011;50345;51.136;16.886;2023-05-31T14:31:36;1.83;;;1.73;;
6955;SDS011;50345;51.136;16.886;2023-05-31T14:34:05;2.17;;;2.07;;
6955;SDS011;50345;51.136;16.886;2023-05-31T14:36:31;2.97;;;2.70;;
6955;SDS011;50345;51.136;16.886;2023-05-31T14:38:57;2.33;;;2.20;;
6955;SDS011;50345;51.136;16.886;2023-05-31T14:41:23;5.17;;;2.07;;
6955;SDS011;50345;51.136;16.886;2023-05-31T14:43:50;2.50;;;2.13;;
6955;SDS011;50345;51.136;16.886;2023-05-31T14:46:16;2.20;;;2.00;;
6955;SDS011;50345;51.136;16.886;2023-05-31T14:48:42;2.53;;;2.07;;
6955;SDS011;50345;51.136;16.886;2023-05-31T14:51:08;2.83;;;2.00;;
6955;SDS011;50345;51.136;16.886;2023-05-31T14:53:34;1.93;;;1.83;;
6955;SDS011;50345;51.136;16.886;2023-05-31T14:56:00;3.07;;;2.60;;
6955;SDS011;50345;51.136;16.886;2023-05-31T14:58:27;3.80;;;2.13;;
6955;SDS011;50345;51.136;16.886;2023-05-31T15:00:53;2.23;;;1.70;;
6955;SDS011;50345;51.136;16.886;2023-05-31T15:03:20;5.13;;;3.60;;
6955;SDS011;50345;51.136;16.886;2023-05-31T15:05:46;2.43;;;1.90;;
6955;SDS011;50345;51.136;16.886;2023-05-31T15:08:12;2.17;;;1.63;;